sensor_id;sensor_type;location;lat;lon;timestamp;P1;durP1;ratioP1;P2;durP2;ratioP2
29168;SDS011;16219;42.864;23.360;2022-12-29T00:02:03;9.50;;;8.50;;
29168;SDS011;16219;42.864;23.360;2022-12-29T00:04:30;14.07;;;7.13;;
29168;SDS011;16219;42.864;23.360;2022-12-29T00:06:58;13.48;;;7.05;;
29168;SDS011;16219;42.864;23.360;2022-12-29T00:09:25;8.98;;;7.75;;
29168;SDS011;16219;42.864;23.360;2022-12-29T00:11:53;9.00;;;6.50;;
29168;SDS011;16219;42.864;23.360;2022-12-29T00:14:20;11.80;;;6.82;;
29168;SDS011;16219;42.864;23.360;2022-12-29T00:17:06;10.35;;;7.95;;
29168;SDS011;16219;42.864;23.360;2022-12-29T00:19:33;12.38;;;7.70;;
29168;SDS011;16219;42.864;23.360;2022-12-29T00:22:18;12.52;;;8.18;;
29168;SDS011;16219;42.864;23.360;2022-12-29T00:25:03;10.43;;;7.07;;
29168;SDS011;16219;42.864;23.360;2022-12-29T00:27:47;15.43;;;8.23;;
29168;SDS011;16219;42.864;23.360;2022-12-29T00:30:41;11.50;;;7.68;;
29168;SDS011;16219;42.864;23.360;2022-12-29T00:33:41;12.13;;;7.18;;
29168;SDS011;16219;42.864;23.360;2022-12-29T00:36:26;12.80;;;7.18;;
29168;SDS011;16219;42.864;23.360;2022-12-29T00:38:59;6.30;;;5.22;;
29168;SDS011;16219;42.864;23.360;2022-12-29T00:41:46;11.45;;;5.72;;
29168;SDS011;16219;42.864;23.360;2022-12-29T00:44:31;6.68;;;4.97;;
29168;SDS011;16219;42.864;23.360;2022-12-29T00:46:58;12.73;;;6.60;;
29168;SDS011;16219;42.864;23.360;2022-12-29T00:49:32;7.65;;;5.43;;
29168;SDS011;16219;42.864;23.360;2022-12-29T00:52:00;10.45;;;5.53;;
29168;SDS011;16219;42.864;23.360;2022-12-29T00:54:30;7.70;;;6.03;;
29168;SDS011;16219;42.864;23.360;2022-12-29T00:57:00;7.10;;;5.60;;
29168;SDS011;16219;42.864;23.360;2022-12-29T00:59:28;6.15;;;4.63;;
29168;SDS011;16219;42.864;23.360;2022-12-29T01:01:56;9.38;;;5.40;;
29168;SDS011;16219;42.864;23.360;2022-12-29T01:04:24;12.85;;;5.78;;
29168;SDS011;16219;42.864;23.360;2022-12-29T01:06:53;8.48;;;5.40;;
29168;SDS011;16219;42.864;23.360;2022-12-29T01:09:21;9.02;;;5.93;;
29168;SDS011;16219;42.864;23.360;2022-12-29T01:12:07;8.68;;;5.65;;
29168;SDS011;16219;42.864;23.360;2022-12-29T01:14:35;12.18;;;5.75;;
29168;SDS011;16219;42.864;23.360;2022-12-29T01:17:02;9.10;;;5.63;;
29168;SDS011;16219;42.864;23.360;2022-12-29T01:19:29;7.53;;;5.25;;
29168;SDS011;16219;42.864;23.360;2022-12-29T01:21:58;7.47;;;6.25;;
29168;SDS011;16219;42.864;23.360;2022-12-29T01:24:25;6.32;;;4.65;;
29168;SDS011;16219;42.864;23.360;2022-12-29T01:26:52;10.35;;;5.88;;
29168;SDS011;16219;42.864;23.360;2022-12-29T01:29:19;9.93;;;5.13;;
29168;SDS011;16219;42.864;23.360;2022-12-29T01:31:47;6.57;;;5.28;;
29168;SDS011;16219;42.864;23.360;2022-12-29T01:34:14;16.10;;;5.88;;
29168;SDS011;16219;42.864;23.360;2022-12-29T01:36:43;14.65;;;6.32;;
29168;SDS011;16219;42.864;23.360;2022-12-29T01:39:12;10.68;;;5.25;;
29168;SDS011;16219;42.864;23.360;2022-12-29T01:41:40;5.78;;;4.35;;
29168;SDS011;16219;42.864;23.360;2022-12-29T01:47:14;9.35;;;4.78;;
29168;SDS011;16219;42.864;23.360;2022-12-29T01:49:50;6.82;;;5.47;;
29168;SDS011;16219;42.864;23.360;2022-12-29T01:52:20;12.07;;;4.05;;
29168;SDS011;16219;42.864;23.360;2022-12-29T01:54:52;7.78;;;6.38;;
29168;SDS011;16219;42.864;23.360;2022-12-29T01:57:22;7.60;;;5.40;;
29168;SDS011;16219;42.864;23.360;2022-12-29T01:59:55;7.68;;;4.57;;
29168;SDS011;16219;42.864;23.360;2022-12-29T02:02:38;6.97;;;4.95;;
29168;SDS011;16219;42.864;23.360;2022-12-29T02:05:09;8.32;;;5.95;;
29168;SDS011;16219;42.864;23.360;2022-12-29T02:07:40;10.20;;;5.10;;
29168;SDS011;16219;42.864;23.360;2022-12-29T02:10:10;9.85;;;4.68;;
29168;SDS011;16219;42.864;23.360;2022-12-29T02:12:40;8.73;;;4.90;;
29168;SDS011;16219;42.864;23.360;2022-12-29T02:15:07;6.78;;;5.18;;
29168;SDS011;16219;42.864;23.360;2022-12-29T02:17:50;7.03;;;4.45;;
29168;SDS011;16219;42.864;23.360;2022-12-29T02:23:42;5.88;;;4.07;;
29168;SDS011;16219;42.864;23.360;2022-12-29T02:26:40;14.30;;;5.05;;
29168;SDS011;16219;42.864;23.360;2022-12-29T02:32:10;8.20;;;4.28;;
29168;SDS011;16219;42.864;23.360;2022-12-29T02:34:47;9.52;;;6.15;;
29168;SDS011;16219;42.864;23.360;2022-12-29T02:37:22;16.08;;;9.55;;
29168;SDS011;16219;42.864;23.360;2022-12-29T02:39:54;6.28;;;5.60;;
29168;SDS011;16219;42.864;23.360;2022-12-29T02:42:29;6.30;;;5.00;;
29168;SDS011;16219;42.864;23.360;2022-12-29T02:45:03;11.13;;;7.43;;
29168;SDS011;16219;42.864;23.360;2022-12-29T02:47:39;11.55;;;6.65;;
29168;SDS011;16219;42.864;23.360;2022-12-29T02:50:13;9.90;;;4.93;;
29168;SDS011;16219;42.864;23.360;2022-12-29T02:52:46;6.63;;;4.97;;
29168;SDS011;16219;42.864;23.360;2022-12-29T02:55:17;7.45;;;4.70;;
29168;SDS011;16219;42.864;23.360;2022-12-29T02:57:44;9.80;;;5.15;;
29168;SDS011;16219;42.864;23.360;2022-12-29T03:00:12;8.27;;;5.00;;
29168;SDS011;16219;42.864;23.360;2022-12-29T03:05:54;4.57;;;4.00;;
29168;SDS011;16219;42.864;23.360;2022-12-29T03:08:37;7.30;;;3.70;;
29168;SDS011;16219;42.864;23.360;2022-12-29T03:11:13;4.97;;;3.55;;
29168;SDS011;16219;42.864;23.360;2022-12-29T03:13:59;4.10;;;3.80;;
29168;SDS011;16219;42.864;23.360;2022-12-29T03:16:49;4.80;;;4.05;;
29168;SDS011;16219;42.864;23.360;2022-12-29T03:19:23;5.40;;;4.32;;
29168;SDS011;16219;42.864;23.360;2022-12-29T03:21:57;4.47;;;4.03;;
29168;SDS011;16219;42.864;23.360;2022-12-29T03:24:52;4.78;;;4.32;;
29168;SDS011;16219;42.864;23.360;2022-12-29T03:27:25;13.38;;;5.78;;
29168;SDS011;16219;42.864;23.360;2022-12-29T03:29:57;10.57;;;4.88;;
29168;SDS011;16219;42.864;23.360;2022-12-29T03:32:28;4.78;;;4.32;;
29168;SDS011;16219;42.864;23.360;2022-12-29T03:35:01;6.20;;;5.35;;
29168;SDS011;16219;42.864;23.360;2022-12-29T03:37:30;5.32;;;4.28;;
29168;SDS011;16219;42.864;23.360;2022-12-29T03:40:04;3.95;;;3.50;;
29168;SDS011;16219;42.864;23.360;2022-12-29T03:42:33;12.27;;;7.00;;
29168;SDS011;16219;42.864;23.360;2022-12-29T03:45:03;6.60;;;5.63;;
29168;SDS011;16219;42.864;23.360;2022-12-29T03:47:32;6.75;;;4.80;;
29168;SDS011;16219;42.864;23.360;2022-12-29T03:50:01;6.68;;;5.40;;
29168;SDS011;16219;42.864;23.360;2022-12-29T03:52:33;5.55;;;4.38;;
29168;SDS011;16219;42.864;23.360;2022-12-29T03:55:00;7.88;;;4.57;;
29168;SDS011;16219;42.864;23.360;2022-12-29T03:57:28;5.72;;;4.45;;
29168;SDS011;16219;42.864;23.360;2022-12-29T04:00:06;7.75;;;5.57;;
29168;SDS011;16219;42.864;23.360;2022-12-29T04:02:40;18.73;;;7.13;;
29168;SDS011;16219;42.864;23.360;2022-12-29T04:05:15;8.07;;;4.88;;
29168;SDS011;16219;42.864;23.360;2022-12-29T04:07:42;11.30;;;6.13;;
29168;SDS011;16219;42.864;23.360;2022-12-29T04:10:09;10.82;;;8.00;;
29168;SDS011;16219;42.864;23.360;2022-12-29T04:12:37;28.20;;;14.63;;
29168;SDS011;16219;42.864;23.360;2022-12-29T04:15:07;20.25;;;13.07;;
29168;SDS011;16219;42.864;23.360;2022-12-29T04:17:35;17.25;;;9.95;;
29168;SDS011;16219;42.864;23.360;2022-12-29T04:20:04;10.40;;;7.15;;
29168;SDS011;16219;42.864;23.360;2022-12-29T04:22:58;17.10;;;9.38;;
29168;SDS011;16219;42.864;23.360;2022-12-29T04:25:26;32.00;;;8.32;;
29168;SDS011;16219;42.864;23.360;2022-12-29T04:27:53;10.82;;;6.82;;
29168;SDS011;16219;42.864;23.360;2022-12-29T04:30:38;8.48;;;6.28;;
29168;SDS011;16219;42.864;23.360;2022-12-29T04:33:15;11.45;;;6.80;;
29168;SDS011;16219;42.864;23.360;2022-12-29T04:35:42;7.78;;;5.30;;
29168;SDS011;16219;42.864;23.360;2022-12-29T04:38:12;22.83;;;5.80;;
29168;SDS011;16219;42.864;23.360;2022-12-29T04:40:39;7.78;;;4.82;;
29168;SDS011;16219;42.864;23.360;2022-12-29T04:43:08;6.70;;;4.13;;
29168;SDS011;16219;42.864;23.360;2022-12-29T04:45:56;7.22;;;4.75;;
29168;SDS011;16219;42.864;23.360;2022-12-29T04:48:43;7.88;;;5.15;;
29168;SDS011;16219;42.864;23.360;2022-12-29T04:51:27;5.67;;;5.10;;
29168;SDS011;16219;42.864;23.360;2022-12-29T04:53:55;8.02;;;4.70;;
29168;SDS011;16219;42.864;23.360;2022-12-29T04:56:24;8.93;;;5.45;;
29168;SDS011;16219;42.864;23.360;2022-12-29T04:58:51;6.10;;;3.92;;
29168;SDS011;16219;42.864;23.360;2022-12-29T05:01:20;7.28;;;5.03;;
29168;SDS011;16219;42.864;23.360;2022-12-29T05:03:49;5.93;;;4.70;;
29168;SDS011;16219;42.864;23.360;2022-12-29T05:06:17;6.82;;;5.30;;
29168;SDS011;16219;42.864;23.360;2022-12-29T05:08:44;7.95;;;4.95;;
29168;SDS011;16219;42.864;23.360;2022-12-29T05:11:13;5.15;;;4.65;;
29168;SDS011;16219;42.864;23.360;2022-12-29T05:13:44;11.27;;;4.20;;
29168;SDS011;16219;42.864;23.360;2022-12-29T05:16:12;8.73;;;4.55;;
29168;SDS011;16219;42.864;23.360;2022-12-29T05:18:39;6.57;;;4.63;;
29168;SDS011;16219;42.864;23.360;2022-12-29T05:21:07;7.30;;;4.20;;
29168;SDS011;16219;42.864;23.360;2022-12-29T05:23:34;7.32;;;5.03;;
29168;SDS011;16219;42.864;23.360;2022-12-29T05:26:04;9.52;;;3.85;;
29168;SDS011;16219;42.864;23.360;2022-12-29T05:28:52;4.97;;;4.10;;
29168;SDS011;16219;42.864;23.360;2022-12-29T05:31:19;6.47;;;4.15;;
29168;SDS011;16219;42.864;23.360;2022-12-29T05:33:47;4.20;;;3.80;;
29168;SDS011;16219;42.864;23.360;2022-12-29T05:36:14;6.90;;;3.95;;
29168;SDS011;16219;42.864;23.360;2022-12-29T05:38:46;4.90;;;3.65;;
29168;SDS011;16219;42.864;23.360;2022-12-29T05:41:16;9.23;;;5.03;;
29168;SDS011;16219;42.864;23.360;2022-12-29T05:44:00;9.52;;;4.72;;
29168;SDS011;16219;42.864;23.360;2022-12-29T05:46:54;5.75;;;4.72;;
29168;SDS011;16219;42.864;23.360;2022-12-29T05:49:42;6.47;;;4.32;;
29168;SDS011;16219;42.864;23.360;2022-12-29T05:52:27;11.80;;;5.97;;
29168;SDS011;16219;42.864;23.360;2022-12-29T05:54:54;8.30;;;5.20;;
29168;SDS011;16219;42.864;23.360;2022-12-29T05:57:25;8.00;;;5.15;;
29168;SDS011;16219;42.864;23.360;2022-12-29T06:00:04;7.75;;;6.15;;
29168;SDS011;16219;42.864;23.360;2022-12-29T06:02:40;8.20;;;5.97;;
29168;SDS011;16219;42.864;23.360;2022-12-29T06:05:07;15.98;;;6.40;;
29168;SDS011;16219;42.864;23.360;2022-12-29T06:07:37;8.50;;;6.13;;
29168;SDS011;16219;42.864;23.360;2022-12-29T06:10:05;9.93;;;6.32;;
29168;SDS011;16219;42.864;23.360;2022-12-29T06:12:41;7.68;;;5.70;;
29168;SDS011;16219;42.864;23.360;2022-12-29T06:15:11;7.40;;;4.97;;
29168;SDS011;16219;42.864;23.360;2022-12-29T06:17:40;8.27;;;5.63;;
29168;SDS011;16219;42.864;23.360;2022-12-29T06:20:08;15.00;;;6.15;;
29168;SDS011;16219;42.864;23.360;2022-12-29T06:22:36;13.35;;;7.43;;
29168;SDS011;16219;42.864;23.360;2022-12-29T06:25:04;11.05;;;6.28;;
29168;SDS011;16219;42.864;23.360;2022-12-29T06:27:34;9.07;;;6.03;;
29168;SDS011;16219;42.864;23.360;2022-12-29T06:30:01;6.28;;;4.75;;
29168;SDS011;16219;42.864;23.360;2022-12-29T06:32:30;6.05;;;5.22;;
29168;SDS011;16219;42.864;23.360;2022-12-29T06:35:03;6.10;;;4.78;;
29168;SDS011;16219;42.864;23.360;2022-12-29T06:37:36;9.77;;;5.80;;
29168;SDS011;16219;42.864;23.360;2022-12-29T06:40:03;5.45;;;4.70;;
29168;SDS011;16219;42.864;23.360;2022-12-29T06:42:43;6.97;;;5.25;;
29168;SDS011;16219;42.864;23.360;2022-12-29T06:45:38;6.82;;;5.13;;
29168;SDS011;16219;42.864;23.360;2022-12-29T06:48:07;5.65;;;4.72;;
29168;SDS011;16219;42.864;23.360;2022-12-29T06:50:35;6.60;;;5.80;;
29168;SDS011;16219;42.864;23.360;2022-12-29T06:53:02;8.20;;;6.43;;
29168;SDS011;16219;42.864;23.360;2022-12-29T06:55:29;12.55;;;6.20;;
29168;SDS011;16219;42.864;23.360;2022-12-29T06:57:57;9.35;;;5.15;;
29168;SDS011;16219;42.864;23.360;2022-12-29T07:00:26;8.27;;;4.83;;
29168;SDS011;16219;42.864;23.360;2022-12-29T07:02:54;6.22;;;4.85;;
29168;SDS011;16219;42.864;23.360;2022-12-29T07:05:24;14.40;;;5.88;;
29168;SDS011;16219;42.864;23.360;2022-12-29T07:07:53;10.02;;;5.47;;
29168;SDS011;16219;42.864;23.360;2022-12-29T07:10:20;5.50;;;4.43;;
29168;SDS011;16219;42.864;23.360;2022-12-29T07:12:47;4.93;;;4.40;;
29168;SDS011;16219;42.864;23.360;2022-12-29T07:15:14;6.82;;;4.95;;
29168;SDS011;16219;42.864;23.360;2022-12-29T07:17:42;6.03;;;3.47;;
29168;SDS011;16219;42.864;23.360;2022-12-29T07:20:09;9.15;;;5.60;;
29168;SDS011;16219;42.864;23.360;2022-12-29T07:22:38;3.58;;;3.10;;
29168;SDS011;16219;42.864;23.360;2022-12-29T07:25:07;5.32;;;4.07;;
29168;SDS011;16219;42.864;23.360;2022-12-29T07:27:35;10.18;;;6.70;;
29168;SDS011;16219;42.864;23.360;2022-12-29T07:30:03;5.90;;;4.85;;
29168;SDS011;16219;42.864;23.360;2022-12-29T07:32:31;6.00;;;4.72;;
29168;SDS011;16219;42.864;23.360;2022-12-29T07:34:59;4.80;;;4.32;;
29168;SDS011;16219;42.864;23.360;2022-12-29T07:37:26;6.95;;;4.45;;
29168;SDS011;16219;42.864;23.360;2022-12-29T07:39:55;7.28;;;4.03;;
29168;SDS011;16219;42.864;23.360;2022-12-29T07:42:22;10.27;;;5.45;;
29168;SDS011;16219;42.864;23.360;2022-12-29T07:44:55;9.48;;;5.05;;
29168;SDS011;16219;42.864;23.360;2022-12-29T07:47:40;9.90;;;4.57;;
29168;SDS011;16219;42.864;23.360;2022-12-29T07:50:07;9.07;;;5.40;;
29168;SDS011;16219;42.864;23.360;2022-12-29T07:52:35;9.45;;;4.32;;
29168;SDS011;16219;42.864;23.360;2022-12-29T07:55:04;6.47;;;5.68;;
29168;SDS011;16219;42.864;23.360;2022-12-29T07:57:31;6.25;;;5.25;;
29168;SDS011;16219;42.864;23.360;2022-12-29T07:59:59;6.55;;;5.28;;
29168;SDS011;16219;42.864;23.360;2022-12-29T08:02:26;8.73;;;6.63;;
29168;SDS011;16219;42.864;23.360;2022-12-29T08:04:54;6.63;;;4.93;;
29168;SDS011;16219;42.864;23.360;2022-12-29T08:07:22;10.77;;;6.65;;
29168;SDS011;16219;42.864;23.360;2022-12-29T08:09:49;6.28;;;4.75;;
29168;SDS011;16219;42.864;23.360;2022-12-29T08:12:17;7.88;;;5.60;;
29168;SDS011;16219;42.864;23.360;2022-12-29T08:14:45;8.07;;;4.93;;
29168;SDS011;16219;42.864;23.360;2022-12-29T08:17:12;18.40;;;8.05;;
29168;SDS011;16219;42.864;23.360;2022-12-29T08:19:39;8.48;;;6.60;;
29168;SDS011;16219;42.864;23.360;2022-12-29T08:22:07;7.38;;;5.85;;
29168;SDS011;16219;42.864;23.360;2022-12-29T08:24:35;9.82;;;6.28;;
29168;SDS011;16219;42.864;23.360;2022-12-29T08:27:03;5.72;;;5.07;;
29168;SDS011;16219;42.864;23.360;2022-12-29T08:29:31;8.52;;;4.03;;
29168;SDS011;16219;42.864;23.360;2022-12-29T08:31:59;9.60;;;6.53;;
29168;SDS011;16219;42.864;23.360;2022-12-29T08:34:27;8.38;;;6.18;;
29168;SDS011;16219;42.864;23.360;2022-12-29T08:36:54;6.88;;;5.75;;
29168;SDS011;16219;42.864;23.360;2022-12-29T08:39:24;9.68;;;6.45;;
29168;SDS011;16219;42.864;23.360;2022-12-29T08:41:51;7.28;;;5.63;;
29168;SDS011;16219;42.864;23.360;2022-12-29T08:44:18;7.40;;;6.13;;
29168;SDS011;16219;42.864;23.360;2022-12-29T08:46:46;14.90;;;5.40;;
29168;SDS011;16219;42.864;23.360;2022-12-29T08:49:13;8.05;;;5.45;;
29168;SDS011;16219;42.864;23.360;2022-12-29T08:51:41;5.72;;;4.75;;
29168;SDS011;16219;42.864;23.360;2022-12-29T08:54:08;4.20;;;3.72;;
29168;SDS011;16219;42.864;23.360;2022-12-29T08:56:35;9.80;;;5.18;;
29168;SDS011;16219;42.864;23.360;2022-12-29T08:59:03;6.80;;;4.28;;
29168;SDS011;16219;42.864;23.360;2022-12-29T09:01:31;4.55;;;4.00;;
29168;SDS011;16219;42.864;23.360;2022-12-29T09:04:00;6.55;;;4.80;;
29168;SDS011;16219;42.864;23.360;2022-12-29T09:06:27;6.82;;;4.32;;
29168;SDS011;16219;42.864;23.360;2022-12-29T09:08:54;3.78;;;3.30;;
29168;SDS011;16219;42.864;23.360;2022-12-29T09:11:22;11.10;;;4.22;;
29168;SDS011;16219;42.864;23.360;2022-12-29T09:13:51;6.47;;;3.40;;
29168;SDS011;16219;42.864;23.360;2022-12-29T09:16:20;5.50;;;4.00;;
29168;SDS011;16219;42.864;23.360;2022-12-29T09:18:48;4.30;;;3.10;;
29168;SDS011;16219;42.864;23.360;2022-12-29T09:21:17;3.55;;;3.25;;
29168;SDS011;16219;42.864;23.360;2022-12-29T09:23:44;4.78;;;4.20;;
29168;SDS011;16219;42.864;23.360;2022-12-29T09:26:11;4.57;;;3.88;;
29168;SDS011;16219;42.864;23.360;2022-12-29T09:28:38;15.68;;;7.63;;
29168;SDS011;16219;42.864;23.360;2022-12-29T09:31:05;3.50;;;3.20;;
29168;SDS011;16219;42.864;23.360;2022-12-29T09:33:33;4.43;;;3.13;;
29168;SDS011;16219;42.864;23.360;2022-12-29T09:36:01;5.13;;;3.38;;
29168;SDS011;16219;42.864;23.360;2022-12-29T09:38:30;4.00;;;3.60;;
29168;SDS011;16219;42.864;23.360;2022-12-29T09:40:59;3.47;;;3.17;;
29168;SDS011;16219;42.864;23.360;2022-12-29T09:43:43;4.70;;;3.35;;
29168;SDS011;16219;42.864;23.360;2022-12-29T09:46:23;4.78;;;3.58;;
29168;SDS011;16219;42.864;23.360;2022-12-29T09:48:54;5.18;;;4.32;;
29168;SDS011;16219;42.864;23.360;2022-12-29T09:51:29;4.53;;;2.85;;
29168;SDS011;16219;42.864;23.360;2022-12-29T09:54:02;3.00;;;2.35;;
29168;SDS011;16219;42.864;23.360;2022-12-29T09:56:44;3.50;;;3.20;;
29168;SDS011;16219;42.864;23.360;2022-12-29T09:59:15;6.00;;;4.18;;
29168;SDS011;16219;42.864;23.360;2022-12-29T10:01:46;6.18;;;3.47;;
29168;SDS011;16219;42.864;23.360;2022-12-29T10:04:18;6.73;;;5.87;;
29168;SDS011;16219;42.864;23.360;2022-12-29T10:06:46;4.38;;;3.90;;
29168;SDS011;16219;42.864;23.360;2022-12-29T10:09:23;6.53;;;4.38;;
29168;SDS011;16219;42.864;23.360;2022-12-29T10:12:00;9.70;;;4.70;;
29168;SDS011;16219;42.864;23.360;2022-12-29T10:14:44;5.32;;;3.63;;
29168;SDS011;16219;42.864;23.360;2022-12-29T10:17:22;6.70;;;4.32;;
29168;SDS011;16219;42.864;23.360;2022-12-29T10:20:02;14.10;;;9.15;;
29168;SDS011;16219;42.864;23.360;2022-12-29T10:22:45;3.60;;;3.30;;
29168;SDS011;16219;42.864;23.360;2022-12-29T10:25:31;4.55;;;3.92;;
29168;SDS011;16219;42.864;23.360;2022-12-29T10:28:04;5.72;;;3.88;;
29168;SDS011;16219;42.864;23.360;2022-12-29T10:30:40;5.90;;;3.55;;
29168;SDS011;16219;42.864;23.360;2022-12-29T10:33:11;2.38;;;2.17;;
29168;SDS011;16219;42.864;23.360;2022-12-29T10:35:43;5.95;;;3.38;;
29168;SDS011;16219;42.864;23.360;2022-12-29T10:38:12;4.85;;;3.55;;
29168;SDS011;16219;42.864;23.360;2022-12-29T10:40:49;4.78;;;2.97;;
29168;SDS011;16219;42.864;23.360;2022-12-29T10:43:22;4.72;;;3.17;;
29168;SDS011;16219;42.864;23.360;2022-12-29T10:45:56;3.42;;;2.70;;
29168;SDS011;16219;42.864;23.360;2022-12-29T10:48:27;4.10;;;3.58;;
29168;SDS011;16219;42.864;23.360;2022-12-29T10:50:57;9.20;;;4.03;;
29168;SDS011;16219;42.864;23.360;2022-12-29T10:53:27;3.28;;;2.60;;
29168;SDS011;16219;42.864;23.360;2022-12-29T10:56:01;4.53;;;3.85;;
29168;SDS011;16219;42.864;23.360;2022-12-29T10:58:33;3.78;;;3.10;;
29168;SDS011;16219;42.864;23.360;2022-12-29T11:01:00;3.38;;;3.08;;
29168;SDS011;16219;42.864;23.360;2022-12-29T11:03:36;5.13;;;3.83;;
29168;SDS011;16219;42.864;23.360;2022-12-29T11:06:22;4.38;;;3.03;;
29168;SDS011;16219;42.864;23.360;2022-12-29T11:08:53;3.80;;;2.33;;
29168;SDS011;16219;42.864;23.360;2022-12-29T11:11:26;1.38;;;1.30;;
29168;SDS011;16219;42.864;23.360;2022-12-29T11:14:00;5.38;;;3.63;;
29168;SDS011;16219;42.864;23.360;2022-12-29T11:16:37;4.72;;;2.92;;
29168;SDS011;16219;42.864;23.360;2022-12-29T11:19:04;4.50;;;4.07;;
29168;SDS011;16219;42.864;23.360;2022-12-29T11:21:33;5.43;;;3.90;;
29168;SDS011;16219;42.864;23.360;2022-12-29T11:24:14;8.02;;;4.95;;
29168;SDS011;16219;42.864;23.360;2022-12-29T11:26:47;4.78;;;4.05;;
29168;SDS011;16219;42.864;23.360;2022-12-29T11:29:22;3.78;;;3.47;;
29168;SDS011;16219;42.864;23.360;2022-12-29T11:31:52;3.78;;;2.80;;
29168;SDS011;16219;42.864;23.360;2022-12-29T11:34:21;5.53;;;3.05;;
29168;SDS011;16219;42.864;23.360;2022-12-29T11:36:51;9.70;;;4.55;;
29168;SDS011;16219;42.864;23.360;2022-12-29T11:39:30;3.83;;;2.70;;
29168;SDS011;16219;42.864;23.360;2022-12-29T11:42:04;2.83;;;2.63;;
29168;SDS011;16219;42.864;23.360;2022-12-29T11:44:42;4.88;;;4.40;;
29168;SDS011;16219;42.864;23.360;2022-12-29T11:47:12;3.53;;;3.17;;
29168;SDS011;16219;42.864;23.360;2022-12-29T11:49:49;6.50;;;5.13;;
29168;SDS011;16219;42.864;23.360;2022-12-29T11:52:20;4.85;;;3.70;;
29168;SDS011;16219;42.864;23.360;2022-12-29T11:54:51;7.13;;;3.83;;
29168;SDS011;16219;42.864;23.360;2022-12-29T11:57:21;6.65;;;3.80;;
29168;SDS011;16219;42.864;23.360;2022-12-29T11:59:50;4.88;;;3.53;;
29168;SDS011;16219;42.864;23.360;2022-12-29T12:02:22;6.45;;;4.60;;
29168;SDS011;16219;42.864;23.360;2022-12-29T12:04:59;3.05;;;2.75;;
29168;SDS011;16219;42.864;23.360;2022-12-29T12:07:36;3.28;;;2.85;;
29168;SDS011;16219;42.864;23.360;2022-12-29T12:10:10;3.97;;;3.50;;
29168;SDS011;16219;42.864;23.360;2022-12-29T12:12:58;4.40;;;3.65;;
29168;SDS011;16219;42.864;23.360;2022-12-29T12:15:31;4.97;;;3.47;;
29168;SDS011;16219;42.864;23.360;2022-12-29T12:18:05;3.65;;;2.92;;
29168;SDS011;16219;42.864;23.360;2022-12-29T12:23:12;3.67;;;3.38;;
29168;SDS011;16219;42.864;23.360;2022-12-29T12:25:49;10.35;;;5.20;;
29168;SDS011;16219;42.864;23.360;2022-12-29T12:28:26;7.35;;;5.55;;
29168;SDS011;16219;42.864;23.360;2022-12-29T12:31:01;5.53;;;4.45;;
29168;SDS011;16219;42.864;23.360;2022-12-29T12:33:33;18.10;;;10.80;;
29168;SDS011;16219;42.864;23.360;2022-12-29T12:36:10;5.43;;;4.88;;
29168;SDS011;16219;42.864;23.360;2022-12-29T12:38:51;7.20;;;4.30;;
29168;SDS011;16219;42.864;23.360;2022-12-29T12:41:27;4.20;;;3.80;;
29168;SDS011;16219;42.864;23.360;2022-12-29T12:44:09;8.30;;;3.65;;
29168;SDS011;16219;42.864;23.360;2022-12-29T12:46:49;3.45;;;3.15;;
29168;SDS011;16219;42.864;23.360;2022-12-29T12:49:45;13.27;;;4.15;;
29168;SDS011;16219;42.864;23.360;2022-12-29T12:52:29;7.70;;;3.58;;
29168;SDS011;16219;42.864;23.360;2022-12-29T12:55:15;9.57;;;3.63;;
29168;SDS011;16219;42.864;23.360;2022-12-29T12:57:58;7.28;;;3.30;;
29168;SDS011;16219;42.864;23.360;2022-12-29T13:00:34;4.05;;;3.65;;
29168;SDS011;16219;42.864;23.360;2022-12-29T13:03:16;7.65;;;3.60;;
29168;SDS011;16219;42.864;23.360;2022-12-29T13:06:04;4.30;;;3.60;;
29168;SDS011;16219;42.864;23.360;2022-12-29T13:08:44;4.40;;;2.95;;
29168;SDS011;16219;42.864;23.360;2022-12-29T13:11:24;4.05;;;3.15;;
29168;SDS011;16219;42.864;23.360;2022-12-29T13:14:02;6.65;;;3.17;;
29168;SDS011;16219;42.864;23.360;2022-12-29T13:16:41;3.08;;;2.55;;
29168;SDS011;16219;42.864;23.360;2022-12-29T13:19:17;4.80;;;3.55;;
29168;SDS011;16219;42.864;23.360;2022-12-29T13:21:59;5.70;;;3.22;;
29168;SDS011;16219;42.864;23.360;2022-12-29T13:24:36;4.32;;;3.92;;
29168;SDS011;16219;42.864;23.360;2022-12-29T13:27:15;5.30;;;4.03;;
29168;SDS011;16219;42.864;23.360;2022-12-29T13:29:47;6.13;;;4.72;;
29168;SDS011;16219;42.864;23.360;2022-12-29T13:32:28;13.00;;;6.28;;
29168;SDS011;16219;42.864;23.360;2022-12-29T13:35:07;10.27;;;5.03;;
29168;SDS011;16219;42.864;23.360;2022-12-29T13:37:45;4.55;;;3.95;;
29168;SDS011;16219;42.864;23.360;2022-12-29T13:40:18;11.68;;;6.90;;
29168;SDS011;16219;42.864;23.360;2022-12-29T13:42:51;8.75;;;5.80;;
29168;SDS011;16219;42.864;23.360;2022-12-29T13:45:20;8.57;;;6.35;;
29168;SDS011;16219;42.864;23.360;2022-12-29T13:47:53;13.82;;;6.85;;
29168;SDS011;16219;42.864;23.360;2022-12-29T13:50:25;7.05;;;5.65;;
29168;SDS011;16219;42.864;23.360;2022-12-29T13:52:56;16.38;;;6.43;;
29168;SDS011;16219;42.864;23.360;2022-12-29T13:55:32;15.27;;;6.53;;
29168;SDS011;16219;42.864;23.360;2022-12-29T13:58:05;5.25;;;4.18;;
29168;SDS011;16219;42.864;23.360;2022-12-29T14:00:43;4.13;;;3.00;;
29168;SDS011;16219;42.864;23.360;2022-12-29T14:03:20;1.88;;;1.77;;
29168;SDS011;16219;42.864;23.360;2022-12-29T14:06:05;7.15;;;5.72;;
29168;SDS011;16219;42.864;23.360;2022-12-29T14:08:40;2.85;;;2.50;;
29168;SDS011;16219;42.864;23.360;2022-12-29T14:11:11;2.25;;;2.05;;
29168;SDS011;16219;42.864;23.360;2022-12-29T14:13:41;16.30;;;10.60;;
29168;SDS011;16219;42.864;23.360;2022-12-29T14:16:21;22.17;;;10.18;;
29168;SDS011;16219;42.864;23.360;2022-12-29T14:18:54;21.23;;;6.63;;
29168;SDS011;16219;42.864;23.360;2022-12-29T14:21:23;10.20;;;4.20;;
29168;SDS011;16219;42.864;23.360;2022-12-29T14:24:00;6.30;;;4.97;;
29168;SDS011;16219;42.864;23.360;2022-12-29T14:27:01;3.22;;;2.88;;
29168;SDS011;16219;42.864;23.360;2022-12-29T14:29:48;7.60;;;5.10;;
29168;SDS011;16219;42.864;23.360;2022-12-29T14:32:36;9.90;;;6.63;;
29168;SDS011;16219;42.864;23.360;2022-12-29T14:38:21;11.50;;;4.43;;
29168;SDS011;16219;42.864;23.360;2022-12-29T14:41:15;3.83;;;3.53;;
29168;SDS011;16219;42.864;23.360;2022-12-29T14:43:54;8.05;;;6.25;;
29168;SDS011;16219;42.864;23.360;2022-12-29T14:46:24;9.43;;;6.30;;
29168;SDS011;16219;42.864;23.360;2022-12-29T14:49:08;10.63;;;8.25;;
29168;SDS011;16219;42.864;23.360;2022-12-29T14:51:45;15.70;;;10.55;;
29168;SDS011;16219;42.864;23.360;2022-12-29T14:57:20;46.95;;;24.08;;
29168;SDS011;16219;42.864;23.360;2022-12-29T14:59:53;29.17;;;18.88;;
29168;SDS011;16219;42.864;23.360;2022-12-29T15:02:24;34.83;;;18.77;;
29168;SDS011;16219;42.864;23.360;2022-12-29T15:04:59;14.38;;;10.52;;
29168;SDS011;16219;42.864;23.360;2022-12-29T15:07:30;15.73;;;11.95;;
29168;SDS011;16219;42.864;23.360;2022-12-29T15:10:01;24.25;;;12.57;;
29168;SDS011;16219;42.864;23.360;2022-12-29T15:12:33;21.15;;;14.38;;
29168;SDS011;16219;42.864;23.360;2022-12-29T15:15:18;27.55;;;13.90;;
29168;SDS011;16219;42.864;23.360;2022-12-29T15:17:47;15.70;;;10.45;;
29168;SDS011;16219;42.864;23.360;2022-12-29T15:20:17;16.67;;;8.52;;
29168;SDS011;16219;42.864;23.360;2022-12-29T15:22:52;13.43;;;8.45;;
29168;SDS011;16219;42.864;23.360;2022-12-29T15:25:21;11.07;;;8.38;;
29168;SDS011;16219;42.864;23.360;2022-12-29T15:27:49;8.15;;;7.18;;